createdAt,value
2023-04-27T00:02:09.460Z,100509.63
2023-04-27T00:04:37.778Z,100508.82
2023-04-27T00:07:05.638Z,100510.91
2023-04-27T00:09:33.329Z,100510.84
2023-04-27T00:12:01.489Z,100513.55
2023-04-27T00:14:29.234Z,100512.05
2023-04-27T00:16:56.993Z,100510.87
2023-04-27T00:19:24.663Z,100512.81
2023-04-27T00:21:52.424Z,100513.42
2023-04-27T00:24:20.035Z,100511.33
2023-04-27T00:26:47.673Z,100512.11
2023-04-27T00:29:15.651Z,100513.71
2023-04-27T00:31:43.561Z,100515.77
2023-04-27T00:34:11.206Z,100518.01
2023-04-27T00:36:38.878Z,100517.20
2023-04-27T00:39:06.662Z,100525.95
2023-04-27T00:41:37.891Z,100524.77
2023-04-27T00:44:06.011Z,100522.98
2023-04-27T00:46:34.335Z,100520.88
2023-04-27T00:49:02.826Z,100524.34
2023-04-27T00:51:31.405Z,100528.00
2023-04-27T00:54:00.201Z,100531.67
2023-04-27T00:56:28.049Z,100526.73
2023-04-27T00:58:56.040Z,100527.55
2023-04-27T01:01:23.733Z,100532.77
2023-04-27T01:03:51.785Z,100531.61
2023-04-27T01:06:19.703Z,100533.11
2023-04-27T01:08:47.370Z,100534.80
2023-04-27T01:11:15.359Z,100532.84
2023-04-27T01:13:43.118Z,100532.70
2023-04-27T01:16:10.731Z,100533.59
2023-04-27T01:18:40.735Z,100536.80
2023-04-27T01:21:08.483Z,100538.95
2023-04-27T01:23:36.667Z,100544.06
2023-04-27T01:26:04.593Z,100545.87
2023-04-27T01:28:32.258Z,100543.67
2023-04-27T01:31:00.052Z,100540.30
2023-04-27T01:33:27.676Z,100543.73
2023-04-27T01:35:55.551Z,100543.98
2023-04-27T01:38:24.338Z,100539.90
2023-04-27T01:40:52.199Z,100540.95
2023-04-27T01:43:19.861Z,100539.83
2023-04-27T01:45:48.671Z,100541.69
2023-04-27T01:48:16.740Z,100543.52
2023-04-27T01:50:44.394Z,100548.87
2023-04-27T01:53:12.163Z,100552.23
2023-04-27T01:55:40.031Z,100552.45
2023-04-27T01:58:07.788Z,100552.73
2023-04-27T02:00:35.463Z,100550.12
2023-04-27T02:03:03.561Z,100549.21
2023-04-27T02:05:31.472Z,100549.17
2023-04-27T02:07:59.237Z,100548.67
2023-04-27T02:10:26.871Z,100548.79
2023-04-27T02:12:54.690Z,100543.02
2023-04-27T02:15:23.011Z,100545.23
2023-04-27T02:17:50.784Z,100544.45
2023-04-27T02:20:18.591Z,100546.82
2023-04-27T02:22:46.240Z,100546.79
2023-04-27T02:25:14.417Z,100547.49
2023-04-27T02:27:42.101Z,100550.27
2023-04-27T02:30:11.866Z,100555.34
2023-04-27T02:32:41.404Z,100552.90
2023-04-27T02:35:10.153Z,100552.27
2023-04-27T02:37:37.887Z,100551.68
2023-04-27T02:40:09.601Z,100552.92
2023-04-27T02:42:39.108Z,100550.30
2023-04-27T02:45:08.246Z,100555.31
2023-04-27T02:47:36.252Z,100558.31
2023-04-27T02:50:04.742Z,100558.48
2023-04-27T02:52:32.411Z,100562.73
2023-04-27T02:55:00.108Z,100560.25
2023-04-27T02:57:28.155Z,100560.98
2023-04-27T02:59:55.839Z,100558.77
2023-04-27T03:02:23.720Z,100558.06
2023-04-27T03:04:55.436Z,100556.52
2023-04-27T03:07:23.117Z,100560.36
2023-04-27T03:09:50.968Z,100566.91
2023-04-27T03:12:18.689Z,100566.73
2023-04-27T03:14:46.372Z,100568.80
2023-04-27T03:17:14.041Z,100570.74
2023-04-27T03:19:41.906Z,100574.34
2023-04-27T03:22:09.563Z,100571.86
2023-04-27T03:24:37.338Z,100571.04
2023-04-27T03:27:05.004Z,100572.23
2023-04-27T03:29:32.761Z,100568.98
2023-04-27T03:32:01.077Z,100575.58
2023-04-27T03:34:28.734Z,100578.33
2023-04-27T03:36:56.971Z,100575.62
2023-04-27T03:39:24.688Z,100580.44
2023-04-27T03:41:52.394Z,100583.04
2023-04-27T03:44:20.016Z,100582.11
2023-04-27T03:46:47.619Z,100584.96
2023-04-27T03:49:15.373Z,100589.64
2023-04-27T03:51:44.190Z,100589.94
2023-04-27T03:54:11.815Z,100590.10
2023-04-27T03:56:39.538Z,100593.86
2023-04-27T03:59:07.258Z,100599.30
2023-04-27T04:01:35.028Z,100599.70
2023-04-27T04:04:02.924Z,100599.09
2023-04-27T04:06:31.202Z,100600.48
2023-04-27T04:08:59.028Z,100599.23
2023-04-27T04:11:27.631Z,100600.55
2023-04-27T04:13:55.501Z,100602.48
2023-04-27T04:16:23.358Z,100604.88
2023-04-27T04:18:51.512Z,100608.73
2023-04-27T04:21:19.142Z,100608.40
2023-04-27T04:23:46.803Z,100605.22
2023-04-27T04:26:14.993Z,100610.41
2023-04-27T04:28:44.312Z,100609.73
2023-04-27T04:31:13.565Z,100616.87
2023-04-27T04:33:41.372Z,100614.23
2023-04-27T04:36:10.989Z,100612.44
2023-04-27T04:38:38.878Z,100612.85
2023-04-27T04:41:07.437Z,100616.45
2023-04-27T04:43:35.084Z,100614.48
2023-04-27T04:46:02.829Z,100616.86
2023-04-27T04:48:30.501Z,100620.86
2023-04-27T04:50:58.199Z,100620.92
2023-04-27T04:53:26.389Z,100620.45
2023-04-27T04:55:54.120Z,100619.77
2023-04-27T04:58:21.768Z,100623.61
2023-04-27T05:00:49.470Z,100622.58
2023-04-27T05:03:17.513Z,100627.57
2023-04-27T05:05:45.583Z,100628.73
2023-04-27T05:08:13.386Z,100629.91
2023-04-27T05:10:41.119Z,100630.46
2023-04-27T05:13:08.873Z,100630.84
2023-04-27T05:15:37.582Z,100634.22
2023-04-27T05:18:05.391Z,100637.98
2023-04-27T05:20:37.677Z,100640.43
2023-04-27T05:23:05.580Z,100636.42
2023-04-27T05:25:34.649Z,100635.89
2023-04-27T05:28:02.305Z,100637.45
2023-04-27T05:30:29.945Z,100636.62
2023-04-27T05:32:57.565Z,100640.73
2023-04-27T05:35:25.237Z,100638.51
2023-04-27T05:37:52.956Z,100638.59
2023-04-27T05:40:20.615Z,100644.60
2023-04-27T05:42:49.207Z,100651.75
2023-04-27T05:45:16.948Z,100650.39
2023-04-27T05:47:44.640Z,100645.28
2023-04-27T05:50:12.591Z,100644.73
2023-04-27T05:52:40.790Z,100647.89
2023-04-27T05:55:08.736Z,100645.82
2023-04-27T05:57:36.446Z,100644.82
2023-04-27T06:00:09.266Z,100646.05
2023-04-27T06:02:37.088Z,100645.86
2023-04-27T06:05:05.599Z,100646.46
2023-04-27T06:07:33.618Z,100639.48
2023-04-27T06:10:01.354Z,100643.77
2023-04-27T06:12:29.075Z,100644.33
2023-04-27T06:14:56.728Z,100642.19
2023-04-27T06:17:24.445Z,100646.30
2023-04-27T06:19:52.201Z,100648.91
2023-04-27T06:22:19.967Z,100652.90
2023-04-27T06:24:47.863Z,100649.17
2023-04-27T06:27:15.690Z,100656.68
2023-04-27T06:29:43.377Z,100661.63
2023-04-27T06:32:11.225Z,100669.94
2023-04-27T06:34:38.925Z,100667.37
2023-04-27T06:37:06.668Z,100677.00
2023-04-27T06:39:35.398Z,100674.92
2023-04-27T06:42:05.909Z,100674.61
2023-04-27T06:44:33.627Z,100677.05
2023-04-27T06:47:01.300Z,100676.70
2023-04-27T06:49:29.059Z,100673.64
2023-04-27T06:51:57.321Z,100674.59
2023-04-27T06:54:25.194Z,100675.23
2023-04-27T06:56:54.808Z,100675.05
2023-04-27T06:59:22.527Z,100678.06
2023-04-27T07:01:50.298Z,100682.04
2023-04-27T07:04:18.320Z,100681.41
2023-04-27T07:06:46.388Z,100676.39
2023-04-27T07:09:26.450Z,100677.89
2023-04-27T07:11:56.023Z,100677.20
2023-04-27T07:14:23.886Z,100680.02
2023-04-27T07:16:51.659Z,100683.53
2023-04-27T07:19:19.541Z,100689.02
2023-04-27T07:21:47.381Z,100694.15
2023-04-27T07:24:15.121Z,100697.39
2023-04-27T07:26:42.813Z,100693.48
2023-04-27T07:29:25.737Z,100694.61
2023-04-27T07:31:56.109Z,100690.70
2023-04-27T07:34:24.183Z,100685.08
2023-04-27T07:36:54.466Z,100690.36
2023-04-27T07:39:22.483Z,100689.02
2023-04-27T07:41:50.353Z,100688.69
2023-04-27T07:44:19.110Z,100690.73
2023-04-27T07:46:49.009Z,100689.04
2023-04-27T07:49:17.050Z,100692.41
2023-04-27T07:51:44.912Z,100691.10
2023-04-27T07:54:12.642Z,100693.15
2023-04-27T07:56:43.134Z,100696.19
2023-04-27T07:59:11.445Z,100695.50
2023-04-27T08:01:39.406Z,100693.86
2023-04-27T08:04:07.340Z,100689.13
2023-04-27T08:06:36.192Z,100691.80
2023-04-27T08:09:05.393Z,100694.39
2023-04-27T08:11:33.166Z,100692.74
2023-04-27T08:14:01.228Z,100696.10
2023-04-27T08:16:28.964Z,100697.31
2023-04-27T08:18:57.549Z,100696.55
2023-04-27T08:21:28.465Z,100693.32
2023-04-27T08:23:56.784Z,100693.25
2023-04-27T08:26:26.290Z,100698.98
2023-04-27T08:28:56.360Z,100697.93
2023-04-27T08:31:25.378Z,100699.06
2023-04-27T08:33:54.114Z,100702.29
2023-04-27T08:36:26.336Z,100700.72
2023-04-27T08:38:54.125Z,100702.63
2023-04-27T08:41:23.524Z,100704.27
2023-04-27T08:43:52.093Z,100703.52
2023-04-27T08:46:24.009Z,100702.84
2023-04-27T08:48:53.015Z,100699.59
2023-04-27T08:51:21.866Z,100700.77
2023-04-27T08:53:54.633Z,100698.15
2023-04-27T08:56:25.250Z,100699.41
2023-04-27T08:58:53.157Z,100701.36
2023-04-27T09:01:24.645Z,100706.38
2023-04-27T09:03:58.736Z,100700.11
2023-04-27T09:06:31.970Z,100696.50
2023-04-27T09:09:00.889Z,100690.98
2023-04-27T09:11:36.718Z,100684.65
2023-04-27T09:14:17.033Z,100682.35
2023-04-27T09:16:45.172Z,100684.84
2023-04-27T09:19:24.466Z,100682.20
2023-04-27T09:22:04.410Z,100677.59
2023-04-27T09:24:32.129Z,100677.98
2023-04-27T09:27:01.095Z,100675.28
2023-04-27T09:29:39.081Z,100681.59
2023-04-27T09:32:17.704Z,100681.38
2023-04-27T09:34:45.778Z,100674.79
2023-04-27T09:37:14.759Z,100673.51
2023-04-27T09:39:43.017Z,100680.05
2023-04-27T09:42:12.694Z,100679.13
2023-04-27T09:44:40.719Z,100689.88
2023-04-27T09:47:10.758Z,100696.17
2023-04-27T09:49:39.005Z,100699.40
2023-04-27T09:52:06.971Z,100698.75
2023-04-27T09:54:36.612Z,100704.30
2023-04-27T09:57:36.192Z,100706.44
2023-04-27T10:00:20.616Z,100702.79
2023-04-27T10:03:23.738Z,100706.21
2023-04-27T10:06:06.855Z,100703.48
2023-04-27T10:08:36.141Z,100705.25
2023-04-27T10:11:15.406Z,100709.02
2023-04-27T10:13:54.809Z,100710.20
2023-04-27T10:16:23.243Z,100708.35
2023-04-27T10:18:55.446Z,100710.77
2023-04-27T10:21:23.938Z,100712.11
2023-04-27T10:23:52.470Z,100706.46
2023-04-27T10:26:24.491Z,100708.61
2023-04-27T10:29:09.184Z,100707.95
2023-04-27T10:31:45.213Z,100708.36
2023-04-27T10:34:21.169Z,100709.12
2023-04-27T10:36:49.217Z,100710.76
2023-04-27T10:39:47.086Z,100706.58
2023-04-27T10:42:30.542Z,100705.30
2023-04-27T10:44:58.641Z,100704.51
2023-04-27T10:47:37.611Z,100706.41
2023-04-27T10:50:07.770Z,100708.28
2023-04-27T10:52:35.605Z,100704.90
2023-04-27T10:55:14.870Z,100707.35
2023-04-27T10:57:56.018Z,100705.18
2023-04-27T11:00:25.534Z,100707.31
2023-04-27T11:02:55.033Z,100706.47
2023-04-27T11:05:29.513Z,100705.97
2023-04-27T11:08:07.330Z,100702.31
2023-04-27T11:10:38.378Z,100701.59
2023-04-27T11:13:15.019Z,100702.98
2023-04-27T11:15:51.138Z,100706.06
2023-04-27T11:18:20.636Z,100704.34
2023-04-27T11:20:51.056Z,100708.98
2023-04-27T11:23:26.320Z,100710.09
2023-04-27T11:25:55.194Z,100711.29
2023-04-27T11:28:24.439Z,100710.27
2023-04-27T11:30:59.723Z,100710.48
2023-04-27T11:33:28.408Z,100715.58
2023-04-27T11:35:57.522Z,100712.50
2023-04-27T11:38:27.651Z,100716.70
2023-04-27T11:41:05.955Z,100717.85
2023-04-27T11:43:34.630Z,100711.90
2023-04-27T11:46:04.446Z,100709.36
2023-04-27T11:48:32.802Z,100710.63
2023-04-27T11:51:01.319Z,100709.65
2023-04-27T11:53:34.014Z,100707.15
2023-04-27T11:56:07.878Z,100704.79
2023-04-27T11:58:37.486Z,100709.77
2023-04-27T12:01:06.974Z,100710.31
2023-04-27T12:03:35.378Z,100706.73
2023-04-27T12:06:21.544Z,100701.80
2023-04-27T12:08:51.485Z,100705.73
2023-04-27T12:11:19.551Z,100700.96
2023-04-27T12:13:47.310Z,100694.65
2023-04-27T12:16:15.692Z,100690.18
2023-04-27T12:18:43.732Z,100692.75
2023-04-27T12:21:11.710Z,100697.52
2023-04-27T12:23:39.394Z,100702.47
2023-04-27T12:26:07.343Z,100703.52
2023-04-27T12:28:35.162Z,100707.96
2023-04-27T12:31:05.210Z,100704.71
2023-04-27T12:33:33.099Z,100710.88
2023-04-27T12:36:00.956Z,100712.40
2023-04-27T12:38:29.349Z,100714.08
2023-04-27T12:40:58.921Z,100717.86
2023-04-27T12:43:27.102Z,100719.23
2023-04-27T12:45:55.010Z,100723.33
2023-04-27T12:48:23.682Z,100726.06
2023-04-27T12:50:51.628Z,100721.95
2023-04-27T12:53:19.518Z,100724.17
2023-04-27T12:55:47.602Z,100727.58
2023-04-27T12:58:15.842Z,100732.35
2023-04-27T13:00:44.211Z,100733.89
2023-04-27T13:03:12.276Z,100734.02
2023-04-27T13:05:40.199Z,100738.94
2023-04-27T13:08:07.889Z,100733.79
2023-04-27T13:10:36.754Z,100735.31
2023-04-27T13:13:04.516Z,100739.17
2023-04-27T13:15:32.361Z,100740.65
2023-04-27T13:18:01.948Z,100743.01
2023-04-27T13:20:29.796Z,100741.79
2023-04-27T13:22:57.518Z,100740.77
2023-04-27T13:25:25.479Z,100743.68
2023-04-27T13:27:54.115Z,100744.48
2023-04-27T13:30:21.861Z,100745.97
2023-04-27T13:32:49.590Z,100749.02
2023-04-27T13:35:17.284Z,100747.45
2023-04-27T13:37:45.541Z,100748.86
2023-04-27T13:40:13.646Z,100750.65
2023-04-27T13:42:41.824Z,100752.23
2023-04-27T13:45:10.539Z,100751.08
2023-04-27T13:47:39.993Z,100751.08
2023-04-27T13:50:12.235Z,100749.88
2023-04-27T13:52:40.661Z,100750.08
2023-04-27T13:55:10.557Z,100749.04
2023-04-27T13:57:38.323Z,100749.92
2023-04-27T14:00:13.167Z,100750.82
2023-04-27T14:02:41.386Z,100751.52
2023-04-27T14:05:09.436Z,100756.42
2023-04-27T14:07:37.268Z,100757.09
2023-04-27T14:10:05.881Z,100756.08
2023-04-27T14:12:33.924Z,100757.59
2023-04-27T14:15:01.566Z,100751.65
2023-04-27T14:17:29.987Z,100750.64
2023-04-27T14:19:57.825Z,100753.73
2023-04-27T14:22:26.372Z,100754.60
2023-04-27T14:24:56.790Z,100753.59
2023-04-27T14:27:24.711Z,100759.72
2023-04-27T14:29:52.474Z,100759.73
2023-04-27T14:32:21.425Z,100754.61
2023-04-27T14:34:49.375Z,100755.98
2023-04-27T14:37:17.716Z,100762.50
2023-04-27T14:39:46.507Z,100760.48
2023-04-27T14:42:14.458Z,100762.07
2023-04-27T14:44:42.539Z,100761.58
2023-04-27T14:47:10.828Z,100767.70
2023-04-27T14:49:39.095Z,100764.95
2023-04-27T14:52:08.471Z,100769.04
2023-04-27T14:54:39.045Z,100775.52
2023-04-27T14:57:08.183Z,100772.59
2023-04-27T14:59:36.316Z,100774.42
2023-04-27T15:02:05.000Z,100777.94
2023-04-27T15:04:35.665Z,100777.67
2023-04-27T15:07:04.744Z,100781.69
2023-04-27T15:09:34.396Z,100785.02
2023-04-27T15:12:04.246Z,100785.96
2023-04-27T15:14:33.506Z,100786.09
2023-04-27T15:17:01.473Z,100789.64
2023-04-27T15:19:29.646Z,100790.48
2023-04-27T15:21:58.021Z,100785.72
2023-04-27T15:24:26.098Z,100787.59
2023-04-27T15:26:54.608Z,100786.20
2023-04-27T15:29:22.912Z,100790.92
2023-04-27T15:31:51.163Z,100788.50
2023-04-27T15:34:20.678Z,100789.14
2023-04-27T15:36:49.098Z,100790.41
2023-04-27T15:39:17.042Z,100788.63
2023-04-27T15:41:45.275Z,100786.36
2023-04-27T15:44:13.399Z,100790.00
2023-04-27T15:46:42.014Z,100786.40
2023-04-27T15:49:13.026Z,100789.42
2023-04-27T15:51:41.416Z,100790.77
2023-04-27T15:54:09.372Z,100790.00
2023-04-27T15:56:37.475Z,100788.96
2023-04-27T15:59:07.291Z,100788.70
2023-04-27T16:01:35.968Z,100788.82
2023-04-27T16:04:04.497Z,100791.67
2023-04-27T16:06:35.893Z,100789.59
2023-04-27T16:09:05.068Z,100792.80
2023-04-27T16:11:33.826Z,100788.65
2023-04-27T16:14:02.297Z,100792.20
2023-04-27T16:16:30.658Z,100795.21
2023-04-27T16:18:59.964Z,100792.33
2023-04-27T16:21:28.795Z,100791.07
2023-04-27T16:23:57.858Z,100789.16
2023-04-27T16:26:27.835Z,100790.90
2023-04-27T16:28:57.777Z,100791.12
2023-04-27T16:31:25.930Z,100792.02
2023-04-27T16:33:54.520Z,100793.90
2023-04-27T16:36:23.394Z,100793.21
2023-04-27T16:38:52.057Z,100795.59
2023-04-27T16:41:20.987Z,100794.21
2023-04-27T16:43:51.138Z,100794.61
2023-04-27T16:46:19.480Z,100796.82
2023-04-27T16:48:47.713Z,100801.37
2023-04-27T16:51:15.770Z,100804.95
2023-04-27T16:53:43.875Z,100807.15
2023-04-27T16:56:13.717Z,100807.95
2023-04-27T16:58:41.837Z,100805.84
2023-04-27T17:01:09.586Z,100804.72
2023-04-27T17:03:37.530Z,100810.39
2023-04-27T17:06:05.539Z,100811.75
2023-04-27T17:08:33.641Z,100814.16
2023-04-27T17:11:01.684Z,100815.86
2023-04-27T17:13:32.970Z,100820.84
2023-04-27T17:16:01.948Z,100818.85
2023-04-27T17:18:31.916Z,100819.95
2023-04-27T17:21:01.144Z,100823.40
2023-04-27T17:23:29.812Z,100821.60
2023-04-27T17:25:58.621Z,100823.21
2023-04-27T17:28:26.683Z,100820.23
2023-04-27T17:30:54.324Z,100822.55
2023-04-27T17:33:23.319Z,100824.84
2023-04-27T17:35:52.727Z,100829.30
2023-04-27T17:38:22.050Z,100828.33
2023-04-27T17:40:50.931Z,100830.75
2023-04-27T17:43:19.310Z,100832.30
2023-04-27T17:45:48.262Z,100830.70
2023-04-27T17:48:17.343Z,100832.63
2023-04-27T17:50:46.196Z,100832.39
2023-04-27T17:53:15.791Z,100835.55
2023-04-27T17:55:48.222Z,100833.24
2023-04-27T17:58:17.386Z,100835.53
2023-04-27T18:00:46.534Z,100837.13
2023-04-27T18:03:16.967Z,100838.40
2023-04-27T18:05:47.006Z,100838.63
2023-04-27T18:08:15.608Z,100841.04
2023-04-27T18:10:45.619Z,100843.66
2023-04-27T18:13:14.080Z,100846.11
2023-04-27T18:15:42.966Z,100848.70
2023-04-27T18:18:14.035Z,100851.42
2023-04-27T18:20:45.479Z,100855.71
2023-04-27T18:23:15.337Z,100859.48
2023-04-27T18:25:44.695Z,100860.02
2023-04-27T18:28:14.020Z,100862.23
2023-04-27T18:30:43.390Z,100864.98
2023-04-27T18:33:12.696Z,100867.21
2023-04-27T18:35:41.524Z,100871.00
2023-04-27T18:38:10.712Z,100872.70
2023-04-27T18:40:41.143Z,100875.46
2023-04-27T18:43:12.605Z,100876.84
2023-04-27T18:45:42.379Z,100875.56
2023-04-27T18:48:11.452Z,100875.27
2023-04-27T18:50:41.728Z,100878.21
2023-04-27T18:53:11.679Z,100873.70
2023-04-27T18:55:40.322Z,100876.65
2023-04-27T18:58:09.174Z,100879.77
2023-04-27T19:00:41.797Z,100876.14
2023-04-27T19:03:11.291Z,100874.05
2023-04-27T19:05:43.331Z,100872.33
2023-04-27T19:08:13.132Z,100872.45
2023-04-27T19:10:42.855Z,100875.11
2023-04-27T19:13:12.560Z,100873.33
2023-04-27T19:15:42.927Z,100877.85
2023-04-27T19:18:12.895Z,100876.98
2023-04-27T19:20:42.797Z,100876.77
2023-04-27T19:23:13.317Z,100877.41
2023-04-27T19:25:42.264Z,100877.86
2023-04-27T19:28:11.109Z,100878.33
2023-04-27T19:30:39.618Z,100879.48
2023-04-27T19:33:08.308Z,100878.08
2023-04-27T19:35:37.440Z,100878.05
2023-04-27T19:38:06.954Z,100876.29
2023-04-27T19:40:37.161Z,100876.77
2023-04-27T19:43:07.290Z,100873.70
2023-04-27T19:45:39.115Z,100877.19
2023-04-27T19:48:08.414Z,100879.81
2023-04-27T19:50:38.664Z,100880.19
2023-04-27T19:53:07.550Z,100881.29
2023-04-27T19:55:36.551Z,100880.36
2023-04-27T19:58:05.465Z,100882.34
2023-04-27T20:00:34.986Z,100884.64
2023-04-27T20:03:04.092Z,100886.04
2023-04-27T20:05:35.738Z,100885.77
2023-04-27T20:08:04.761Z,100889.02
2023-04-27T20:10:34.318Z,100891.42
2023-04-27T20:13:02.720Z,100894.49
2023-04-27T20:15:31.218Z,100891.67
2023-04-27T20:17:59.360Z,100896.49
2023-04-27T20:20:28.407Z,100899.28
2023-04-27T20:22:56.886Z,100899.88
2023-04-27T20:25:26.095Z,100902.64
2023-04-27T20:27:54.650Z,100903.07
2023-04-27T20:30:22.869Z,100902.44
2023-04-27T20:32:51.342Z,100906.05
2023-04-27T20:35:20.324Z,100906.66
2023-04-27T20:37:48.667Z,100909.00
2023-04-27T20:40:18.300Z,100908.48
2023-04-27T20:42:47.093Z,100911.46
2023-04-27T20:45:15.550Z,100912.23
2023-04-27T20:47:43.949Z,100914.34
2023-04-27T20:50:12.674Z,100919.97
2023-04-27T20:52:41.760Z,100920.04
2023-04-27T20:55:10.492Z,100919.60
2023-04-27T20:57:39.499Z,100918.95
2023-04-27T21:00:10.132Z,100920.66
2023-04-27T21:02:38.938Z,100920.84
2023-04-27T21:05:07.758Z,100921.73
2023-04-27T21:07:36.407Z,100919.86
2023-04-27T21:10:07.098Z,100920.34
2023-04-27T21:12:35.996Z,100922.37
2023-04-27T21:15:04.732Z,100923.42
2023-04-27T21:17:33.562Z,100924.11
2023-04-27T21:20:02.398Z,100928.53
2023-04-27T21:22:31.008Z,100927.98
2023-04-27T21:24:59.368Z,100925.45
2023-04-27T21:27:31.705Z,100924.75
2023-04-27T21:30:00.068Z,100923.52
2023-04-27T21:32:29.306Z,100925.58
2023-04-27T21:34:57.744Z,100926.45
2023-04-27T21:37:26.550Z,100924.72
2023-04-27T21:39:55.024Z,100926.70
2023-04-27T21:42:24.810Z,100923.60
2023-04-27T21:44:53.093Z,100922.73
2023-04-27T21:47:20.987Z,100923.94
2023-04-27T21:49:50.594Z,100929.33
2023-04-27T21:52:21.896Z,100932.83
2023-04-27T21:54:50.175Z,100933.81
2023-04-27T21:57:19.932Z,100936.80
2023-04-27T21:59:48.835Z,100939.80
2023-04-27T22:02:17.846Z,100939.48
2023-04-27T22:04:46.690Z,100940.84
2023-04-27T22:07:15.029Z,100940.56
2023-04-27T22:09:43.980Z,100939.86
2023-04-27T22:12:12.737Z,100940.70
2023-04-27T22:14:43.554Z,100940.22
2023-04-27T22:17:40.034Z,100943.94
2023-04-27T22:20:13.142Z,100944.38
2023-04-27T22:22:41.564Z,100944.63
2023-04-27T22:25:12.043Z,100945.20
2023-04-27T22:27:44.879Z,100946.63
2023-04-27T22:30:15.764Z,100947.52
2023-04-27T22:32:45.492Z,100948.70
2023-04-27T22:35:25.504Z,100948.36
2023-04-27T22:37:56.685Z,100951.14
2023-04-27T22:40:25.727Z,100946.44
2023-04-27T22:42:55.908Z,100948.86
2023-04-27T22:45:24.879Z,100950.85
2023-04-27T22:47:53.055Z,100949.36
2023-04-27T22:50:21.867Z,100951.27
2023-04-27T22:52:50.277Z,100948.79
2023-04-27T22:55:19.631Z,100946.85
2023-04-27T22:57:50.215Z,100950.45
2023-04-27T23:00:18.505Z,100952.36
2023-04-27T23:02:48.360Z,100948.58
2023-04-27T23:05:16.941Z,100946.92
2023-04-27T23:07:46.976Z,100950.75
2023-04-27T23:10:15.553Z,100946.50
2023-04-27T23:12:43.965Z,100948.23
2023-04-27T23:15:12.719Z,100948.25
2023-04-27T23:17:41.753Z,100950.16
2023-04-27T23:20:24.558Z,100949.67
2023-04-27T23:22:56.526Z,100947.86
2023-04-27T23:25:26.206Z,100948.13
2023-04-27T23:27:54.639Z,100949.50
2023-04-27T23:30:23.796Z,100950.52
2023-04-27T23:32:52.161Z,100952.14
2023-04-27T23:35:21.198Z,100948.94
2023-04-27T23:37:50.445Z,100951.33
2023-04-27T23:40:18.963Z,100955.16
2023-04-27T23:42:50.823Z,100954.76
2023-04-27T23:45:21.144Z,100952.11
2023-04-27T23:47:49.925Z,100953.16
2023-04-27T23:50:19.097Z,100959.42
2023-04-27T23:52:48.233Z,100962.30
2023-04-27T23:55:17.238Z,100961.59
2023-04-27T23:57:46.453Z,100961.45
